createdAt,value
2022-08-25T00:00:14.940Z,99.90
2022-08-25T00:02:51.606Z,99.90
2022-08-25T00:05:29.345Z,99.90
2022-08-25T00:08:00.208Z,99.90
2022-08-25T00:10:28.761Z,99.90
2022-08-25T00:12:56.655Z,99.90
2022-08-25T00:15:24.354Z,99.90
2022-08-25T00:17:52.026Z,99.90
2022-08-25T00:20:20.009Z,99.90
2022-08-25T00:22:47.617Z,99.90
2022-08-25T00:25:15.322Z,99.90
2022-08-25T00:27:43.837Z,99.90
2022-08-25T00:30:16.055Z,99.90
2022-08-25T00:32:43.905Z,99.90
2022-08-25T00:35:20.079Z,99.90
2022-08-25T00:37:47.622Z,99.90
2022-08-25T00:40:15.265Z,99.90
2022-08-25T00:42:42.826Z,99.90
2022-08-25T00:45:10.558Z,99.90
2022-08-25T00:47:38.063Z,99.90
2022-08-25T00:50:06.607Z,99.90
2022-08-25T00:52:39.608Z,99.90
2022-08-25T00:55:10.831Z,99.90
2022-08-25T00:57:58.858Z,99.90
2022-08-25T01:00:30.188Z,99.90
2022-08-25T01:02:58.065Z,99.90
2022-08-25T01:05:26.543Z,99.90
2022-08-25T01:07:57.526Z,99.90
2022-08-25T01:10:27.481Z,99.90
2022-08-25T01:12:58.472Z,99.90
2022-08-25T01:15:25.996Z,99.90
2022-08-25T01:17:55.694Z,99.90
2022-08-25T01:20:29.366Z,99.90
2022-08-25T01:22:57.774Z,99.90
2022-08-25T01:25:29.529Z,99.90
2022-08-25T01:27:57.108Z,99.90
2022-08-25T01:30:25.189Z,99.90
2022-08-25T01:32:52.643Z,99.90
2022-08-25T01:35:20.242Z,99.90
2022-08-25T01:37:48.671Z,99.90
2022-08-25T01:40:16.416Z,99.90
2022-08-25T01:42:54.157Z,99.90
2022-08-25T01:45:21.714Z,99.90
2022-08-25T01:47:49.460Z,99.90
2022-08-25T01:50:17.146Z,99.90
2022-08-25T01:52:55.732Z,99.90
2022-08-25T01:55:23.295Z,99.90
2022-08-25T01:57:50.958Z,99.90
2022-08-25T02:00:19.187Z,99.90
2022-08-25T02:02:46.983Z,99.90
2022-08-25T02:05:23.472Z,99.90
2022-08-25T02:07:51.823Z,99.90
2022-08-25T02:10:19.518Z,99.90
2022-08-25T02:12:47.146Z,99.90
2022-08-25T02:15:14.695Z,99.90
2022-08-25T02:17:42.334Z,99.90
2022-08-25T02:20:10.013Z,99.90
2022-08-25T02:22:37.523Z,99.90
2022-08-25T02:25:06.512Z,99.90
2022-08-25T02:27:34.192Z,99.90
2022-08-25T02:30:02.353Z,99.90
2022-08-25T02:32:30.011Z,99.90
2022-08-25T02:34:57.471Z,99.90
2022-08-25T02:37:25.133Z,99.90
2022-08-25T02:39:52.687Z,99.90
2022-08-25T02:42:22.027Z,99.90
2022-08-25T02:44:49.485Z,99.90
2022-08-25T02:47:16.888Z,99.90
2022-08-25T02:49:44.732Z,99.90
2022-08-25T02:52:12.450Z,99.90
2022-08-25T02:54:39.985Z,99.90
2022-08-25T02:57:07.607Z,99.90
2022-08-25T02:59:36.023Z,99.90
2022-08-25T03:02:03.861Z,99.90
2022-08-25T03:04:32.064Z,99.90
2022-08-25T03:06:59.707Z,99.90
2022-08-25T03:09:27.463Z,99.90
2022-08-25T03:11:55.084Z,99.90
2022-08-25T03:14:22.766Z,99.90
2022-08-25T03:16:50.552Z,99.90
2022-08-25T03:19:18.217Z,99.90
2022-08-25T03:21:46.003Z,99.90
2022-08-25T03:24:13.565Z,99.90
2022-08-25T03:26:56.489Z,99.90
2022-08-25T03:29:25.366Z,99.90
2022-08-25T03:31:54.865Z,99.90
2022-08-25T03:34:22.999Z,99.90
2022-08-25T03:36:52.939Z,99.90
2022-08-25T03:39:21.896Z,99.90
2022-08-25T03:41:49.663Z,99.90
2022-08-25T03:44:17.907Z,99.90
2022-08-25T03:46:46.890Z,99.90
2022-08-25T03:49:16.313Z,99.90
2022-08-25T03:51:47.478Z,99.90
2022-08-25T03:54:16.874Z,99.90
2022-08-25T03:56:44.564Z,99.90
2022-08-25T03:59:12.828Z,99.90
2022-08-25T04:01:41.647Z,99.90
2022-08-25T04:04:09.926Z,99.90
2022-08-25T04:06:38.334Z,99.90
2022-08-25T04:09:05.987Z,99.90
2022-08-25T04:11:33.427Z,99.90
2022-08-25T04:14:02.443Z,99.90
2022-08-25T04:16:31.538Z,99.90
2022-08-25T04:19:00.568Z,99.90
2022-08-25T04:21:28.402Z,99.90
2022-08-25T04:23:56.506Z,99.90
2022-08-25T04:26:26.342Z,99.90
2022-08-25T04:28:54.366Z,99.90
2022-08-25T04:31:22.391Z,99.90
2022-08-25T04:33:50.066Z,99.90
2022-08-25T04:36:18.468Z,99.90
2022-08-25T04:38:46.767Z,99.90
2022-08-25T04:41:15.147Z,99.90
2022-08-25T04:43:44.088Z,99.90
2022-08-25T04:46:31.306Z,99.90
2022-08-25T04:48:59.869Z,99.90
2022-08-25T04:51:29.559Z,99.90
2022-08-25T04:53:59.206Z,99.90
2022-08-25T04:56:27.050Z,99.90
2022-08-25T04:58:55.001Z,99.90
2022-08-25T05:01:23.735Z,99.90
2022-08-25T05:03:59.560Z,99.90
2022-08-25T05:06:27.663Z,99.90
2022-08-25T05:08:56.152Z,99.90
2022-08-25T05:11:23.946Z,99.90
2022-08-25T05:13:52.693Z,99.90
2022-08-25T05:16:21.481Z,99.90
2022-08-25T05:18:49.865Z,99.90
2022-08-25T05:21:25.152Z,99.90
2022-08-25T05:23:57.577Z,99.90
2022-08-25T05:26:26.654Z,99.90
2022-08-25T05:28:55.204Z,99.90
2022-08-25T05:31:23.822Z,99.90
2022-08-25T05:33:51.893Z,99.90
2022-08-25T05:36:20.381Z,99.90
2022-08-25T05:38:48.034Z,99.90
2022-08-25T05:41:17.170Z,99.90
2022-08-25T05:43:45.991Z,99.90
2022-08-25T05:46:13.564Z,99.90
2022-08-25T05:48:41.173Z,99.90
2022-08-25T05:51:10.449Z,99.90
2022-08-25T05:53:39.296Z,99.90
2022-08-25T05:56:07.074Z,99.90
2022-08-25T05:58:35.122Z,99.90
2022-08-25T06:01:22.745Z,99.90
2022-08-25T06:03:53.461Z,99.90
2022-08-25T06:06:22.887Z,99.90
2022-08-25T06:08:50.448Z,99.90
2022-08-25T06:11:18.216Z,99.90
2022-08-25T06:13:45.701Z,99.90
2022-08-25T06:16:13.283Z,99.90
2022-08-25T06:18:40.788Z,99.90
2022-08-25T06:21:13.045Z,99.90
2022-08-25T06:23:40.847Z,99.90
2022-08-25T06:26:14.323Z,99.90
2022-08-25T06:28:50.596Z,99.90
2022-08-25T06:31:18.980Z,99.90
2022-08-25T06:33:46.551Z,99.90
2022-08-25T06:36:14.364Z,99.90
2022-08-25T06:38:41.916Z,99.90
2022-08-25T06:41:12.944Z,99.90
2022-08-25T06:43:47.292Z,99.90
2022-08-25T06:46:18.384Z,99.90
2022-08-25T06:48:45.983Z,99.90
2022-08-25T06:51:16.205Z,99.90
2022-08-25T06:53:44.991Z,99.90
2022-08-25T06:56:12.798Z,99.90
2022-08-25T06:58:40.554Z,99.90
2022-08-25T07:01:11.339Z,99.90
2022-08-25T07:03:43.798Z,99.90
2022-08-25T07:06:11.496Z,99.90
2022-08-25T07:08:38.983Z,99.90
2022-08-25T07:11:07.210Z,99.90
2022-08-25T07:13:44.086Z,99.90
2022-08-25T07:16:11.772Z,99.90
2022-08-25T07:18:39.344Z,99.90
2022-08-25T07:21:08.790Z,99.90
2022-08-25T07:23:37.450Z,99.90
2022-08-25T07:28:58.782Z,99.90
2022-08-25T07:31:28.849Z,99.90
2022-08-25T07:34:16.656Z,99.90
2022-08-25T07:36:45.086Z,99.90
2022-08-25T07:39:13.040Z,99.90
2022-08-25T07:41:41.260Z,99.90
2022-08-25T07:44:10.419Z,99.90
2022-08-25T07:46:38.505Z,99.90
2022-08-25T07:49:13.318Z,99.90
2022-08-25T07:52:05.525Z,99.90
2022-08-25T07:54:34.958Z,99.90
2022-08-25T07:57:03.827Z,99.90
2022-08-25T07:59:39.311Z,99.90
2022-08-25T08:02:17.863Z,99.90
2022-08-25T08:04:50.293Z,99.90
2022-08-25T08:07:23.695Z,99.90
2022-08-25T08:10:32.885Z,99.90
2022-08-25T08:12:53.426Z,99.90
2022-08-25T08:15:21.003Z,99.90
2022-08-25T08:17:49.644Z,99.90
2022-08-25T08:20:23.362Z,99.90
2022-08-25T08:22:51.723Z,99.90
2022-08-25T08:25:21.295Z,99.90
2022-08-25T08:27:55.091Z,99.90
2022-08-25T08:30:25.915Z,99.90
2022-08-25T08:33:11.870Z,99.90
2022-08-25T08:36:12.768Z,99.90
2022-08-25T08:38:42.826Z,99.90
2022-08-25T08:44:42.910Z,99.90
2022-08-25T08:47:35.821Z,99.90
2022-08-25T08:50:24.890Z,99.90
2022-08-25T08:53:13.069Z,99.90
2022-08-25T08:55:52.868Z,99.90
2022-08-25T08:58:26.590Z,99.90
2022-08-25T09:03:55.340Z,99.90
2022-08-25T09:06:39.430Z,99.90
2022-08-25T09:09:09.190Z,99.90
2022-08-25T09:12:01.094Z,99.90
2022-08-25T09:14:47.096Z,99.90
2022-08-25T09:17:36.303Z,99.90
2022-08-25T09:20:18.605Z,99.90
2022-08-25T09:22:58.876Z,99.90
2022-08-25T09:28:24.124Z,99.90
2022-08-25T09:31:00.713Z,99.90
2022-08-25T09:33:34.206Z,99.90
2022-08-25T09:36:06.080Z,99.90
2022-08-25T09:38:36.530Z,99.90
2022-08-25T09:41:04.983Z,99.90
2022-08-25T09:43:41.640Z,99.90
2022-08-25T09:46:15.768Z,99.90
2022-08-25T09:48:56.943Z,99.90
2022-08-25T09:51:42.293Z,99.90
2022-08-25T09:54:14.000Z,99.90
2022-08-25T09:56:54.636Z,99.90
2022-08-25T09:59:30.785Z,99.90
2022-08-25T10:02:22.184Z,99.90
2022-08-25T10:07:33.672Z,99.90
2022-08-25T10:10:07.679Z,99.90
2022-08-25T10:12:44.416Z,99.90
2022-08-25T10:15:35.203Z,99.90
2022-08-25T10:18:28.961Z,99.90
2022-08-25T10:21:08.842Z,99.90
2022-08-25T10:23:44.545Z,99.90
2022-08-25T10:26:47.790Z,99.90
2022-08-25T10:29:38.697Z,99.90
2022-08-25T10:32:27.323Z,99.90
2022-08-25T10:34:59.414Z,99.90
2022-08-25T10:37:41.613Z,99.90
2022-08-25T10:40:31.566Z,99.90
2022-08-25T10:43:11.344Z,99.90
2022-08-25T10:46:16.923Z,99.90
2022-08-25T10:49:08.601Z,99.90
2022-08-25T10:52:01.558Z,99.90
2022-08-25T10:55:02.914Z,99.90
2022-08-25T10:57:35.350Z,99.90
2022-08-25T11:00:33.280Z,99.90
2022-08-25T11:03:35.248Z,99.90
2022-08-25T11:06:12.441Z,99.90
2022-08-25T11:09:00.710Z,99.90
2022-08-25T11:11:49.842Z,99.90
2022-08-25T11:16:51.698Z,99.90
2022-08-25T11:19:32.724Z,99.90
2022-08-25T11:22:14.700Z,99.90
2022-08-25T11:25:11.514Z,99.90
2022-08-25T11:27:57.851Z,99.90
2022-08-25T11:30:26.823Z,99.90
2022-08-25T11:32:56.372Z,99.90
2022-08-25T11:35:57.514Z,99.90
2022-08-25T11:38:55.234Z,99.90
2022-08-25T11:41:25.776Z,99.90
2022-08-25T11:44:11.812Z,99.90
2022-08-25T11:47:21.258Z,99.90
2022-08-25T11:49:57.115Z,99.90
2022-08-25T11:52:34.672Z,99.90
2022-08-25T11:55:46.513Z,99.90
2022-08-25T11:58:37.562Z,99.90
2022-08-25T12:01:10.021Z,99.90
2022-08-25T12:03:37.834Z,99.90
2022-08-25T12:06:27.025Z,99.90
2022-08-25T12:09:01.110Z,99.90
2022-08-25T12:11:55.759Z,99.90
2022-08-25T12:14:28.094Z,99.90
2022-08-25T12:16:56.488Z,99.90
2022-08-25T12:19:30.397Z,99.90
2022-08-25T12:22:27.314Z,99.90
2022-08-25T12:25:08.835Z,99.90
2022-08-25T12:27:58.149Z,99.90
2022-08-25T12:30:47.197Z,99.90
2022-08-25T12:33:41.272Z,99.90
2022-08-25T12:36:25.500Z,99.90
2022-08-25T12:38:54.652Z,99.90
2022-08-25T12:41:26.263Z,99.90
2022-08-25T12:44:15.579Z,99.90
2022-08-25T12:46:44.941Z,99.90
2022-08-25T12:49:34.873Z,99.90
2022-08-25T12:52:07.963Z,99.90
2022-08-25T12:54:49.056Z,99.90
2022-08-25T12:57:41.055Z,99.90
2022-08-25T13:00:22.767Z,99.90
2022-08-25T13:03:32.454Z,99.90
2022-08-25T13:06:38.004Z,99.90
2022-08-25T13:09:27.577Z,99.90
2022-08-25T13:11:58.247Z,99.90
2022-08-25T13:14:41.999Z,99.90
2022-08-25T13:17:24.480Z,99.90
2022-08-25T13:19:52.177Z,99.90
2022-08-25T13:22:21.327Z,99.90
2022-08-25T13:24:51.211Z,99.90
2022-08-25T13:27:24.153Z,99.90
2022-08-25T13:29:56.456Z,99.90
2022-08-25T13:32:32.466Z,99.90
2022-08-25T13:35:17.765Z,99.90
2022-08-25T13:37:48.599Z,99.90
2022-08-25T13:40:29.380Z,99.90
2022-08-25T13:43:01.078Z,99.90
2022-08-25T13:45:41.531Z,99.90
2022-08-25T13:48:21.065Z,99.90
2022-08-25T13:50:52.905Z,99.90
2022-08-25T13:53:26.465Z,99.90
2022-08-25T13:55:59.522Z,99.90
2022-08-25T13:58:39.181Z,99.90
2022-08-25T14:01:22.595Z,99.90
2022-08-25T14:04:50.554Z,99.90
2022-08-25T14:07:22.876Z,99.90
2022-08-25T14:09:52.217Z,99.90
2022-08-25T14:12:47.666Z,99.90
2022-08-25T14:15:18.376Z,99.50
2022-08-25T14:18:01.680Z,99.90
2022-08-25T14:20:32.867Z,97.70
2022-08-25T14:23:16.238Z,96.60
2022-08-25T14:25:49.783Z,94.50
2022-08-25T14:28:20.988Z,94.20
2022-08-25T14:30:53.946Z,94.20
2022-08-25T14:33:28.851Z,96.20
2022-08-25T14:36:00.528Z,96.90
2022-08-25T14:38:28.374Z,97.00
2022-08-25T14:40:59.267Z,97.60
2022-08-25T14:43:31.513Z,98.00
2022-08-25T14:46:03.162Z,97.70
2022-08-25T14:48:40.304Z,97.50
2022-08-25T14:51:12.699Z,97.60
2022-08-25T14:53:42.119Z,97.80
2022-08-25T14:56:10.521Z,97.60
2022-08-25T14:58:51.014Z,97.00
2022-08-25T15:01:28.952Z,95.20
2022-08-25T15:04:19.917Z,94.20
2022-08-25T15:06:54.127Z,92.90
2022-08-25T15:09:22.364Z,94.00
2022-08-25T15:11:54.726Z,93.00
2022-08-25T15:14:28.388Z,92.20
2022-08-25T15:16:57.864Z,92.30
2022-08-25T15:19:27.147Z,93.80
2022-08-25T15:21:57.764Z,92.90
2022-08-25T15:24:29.587Z,94.20
2022-08-25T15:27:00.017Z,91.90
2022-08-25T15:29:30.499Z,91.40
2022-08-25T15:32:00.315Z,91.00
2022-08-25T15:34:29.737Z,89.40
2022-08-25T15:36:59.050Z,89.00
2022-08-25T15:39:27.890Z,89.20
2022-08-25T15:41:57.292Z,88.20
2022-08-25T15:44:29.502Z,86.40
2022-08-25T15:46:59.343Z,89.10
2022-08-25T15:49:29.768Z,89.60
2022-08-25T15:51:59.367Z,87.40
2022-08-25T15:54:28.460Z,86.80
2022-08-25T15:56:58.835Z,83.20
2022-08-25T15:59:29.199Z,81.70
2022-08-25T16:01:57.565Z,82.20
2022-08-25T16:04:27.797Z,84.20
2022-08-25T16:06:56.102Z,82.40
2022-08-25T16:09:23.859Z,80.90
2022-08-25T16:11:56.587Z,82.30
2022-08-25T16:14:29.094Z,82.70
2022-08-25T16:16:58.432Z,82.90
2022-08-25T16:19:29.340Z,82.90
2022-08-25T16:21:58.844Z,83.80
2022-08-25T16:24:27.925Z,82.40
2022-08-25T16:27:00.295Z,82.30
2022-08-25T16:29:41.573Z,83.60
2022-08-25T16:32:11.565Z,84.00
2022-08-25T16:34:41.991Z,83.40
2022-08-25T16:37:09.895Z,83.20
2022-08-25T16:39:39.982Z,82.10
2022-08-25T16:42:09.016Z,82.50
2022-08-25T16:44:37.511Z,82.50
2022-08-25T16:47:08.763Z,82.40
2022-08-25T16:49:38.009Z,82.90
2022-08-25T16:52:28.367Z,82.90
2022-08-25T16:55:16.419Z,81.80
2022-08-25T16:57:47.778Z,81.50
2022-08-25T17:00:22.749Z,81.90
2022-08-25T17:02:56.050Z,80.70
2022-08-25T17:05:24.119Z,81.50
2022-08-25T17:08:11.104Z,82.20
2022-08-25T17:10:41.462Z,82.50
2022-08-25T17:13:10.510Z,82.00
2022-08-25T17:15:43.415Z,81.30
2022-08-25T17:20:43.358Z,80.30
2022-08-25T17:23:12.961Z,80.70
2022-08-25T17:25:43.462Z,81.10
2022-08-25T17:28:12.941Z,82.00
2022-08-25T17:30:41.412Z,82.80
2022-08-25T17:33:09.362Z,83.60
2022-08-25T17:35:46.556Z,84.20
2022-08-25T17:38:16.995Z,86.70
2022-08-25T17:40:46.815Z,87.40
2022-08-25T17:43:14.993Z,87.80
2022-08-25T17:45:43.446Z,86.70
2022-08-25T17:48:13.311Z,86.80
2022-08-25T17:50:41.922Z,86.90
2022-08-25T17:53:10.209Z,86.10
2022-08-25T17:55:39.118Z,84.20
2022-08-25T17:58:12.226Z,84.80
2022-08-25T18:00:43.956Z,84.10
2022-08-25T18:03:11.962Z,83.50
2022-08-25T18:05:39.957Z,83.70
2022-08-25T18:08:10.509Z,84.80
2022-08-25T18:10:39.755Z,85.20
2022-08-25T18:13:07.632Z,85.90
2022-08-25T18:15:35.660Z,86.10
2022-08-25T18:18:04.557Z,86.60
2022-08-25T18:20:32.995Z,89.00
2022-08-25T18:23:01.100Z,89.40
2022-08-25T18:25:29.765Z,90.10
2022-08-25T18:27:57.997Z,90.80
2022-08-25T18:30:27.540Z,91.50
2022-08-25T18:32:55.678Z,92.30
2022-08-25T18:35:26.741Z,92.70
2022-08-25T18:38:12.963Z,93.30
2022-08-25T18:40:40.924Z,94.10
2022-08-25T18:43:09.964Z,94.20
2022-08-25T18:45:49.416Z,95.20
2022-08-25T18:48:20.184Z,96.10
2022-08-25T18:50:50.622Z,97.20
2022-08-25T18:53:36.907Z,98.10
2022-08-25T18:56:10.888Z,99.30
2022-08-25T18:58:39.363Z,99.40
2022-08-25T19:01:14.478Z,99.90
2022-08-25T19:03:44.359Z,99.90
2022-08-25T19:06:12.373Z,99.90
2022-08-25T19:08:42.120Z,99.90
2022-08-25T19:11:10.646Z,99.90
2022-08-25T19:13:38.906Z,99.90
2022-08-25T19:16:20.391Z,99.90
2022-08-25T19:18:50.029Z,99.90
2022-08-25T19:21:23.522Z,99.90
2022-08-25T19:23:53.105Z,99.90
2022-08-25T19:26:21.480Z,99.90
2022-08-25T19:28:52.867Z,99.90
2022-08-25T19:31:26.540Z,99.90
2022-08-25T19:33:55.972Z,99.90
2022-08-25T19:36:28.142Z,99.90
2022-08-25T19:39:00.308Z,99.90
2022-08-25T19:41:31.464Z,99.90
2022-08-25T19:44:04.010Z,99.90
2022-08-25T19:46:35.241Z,99.90
2022-08-25T19:49:10.704Z,99.90
2022-08-25T19:51:40.996Z,99.90
2022-08-25T19:54:17.723Z,99.90
2022-08-25T19:56:54.517Z,99.90
2022-08-25T19:59:40.549Z,99.90
2022-08-25T20:02:17.490Z,99.90
2022-08-25T20:04:50.371Z,99.90
2022-08-25T20:07:24.096Z,99.90
2022-08-25T20:09:53.219Z,99.90
2022-08-25T20:12:23.225Z,99.90
2022-08-25T20:14:52.200Z,99.90
2022-08-25T20:17:24.624Z,99.90
2022-08-25T20:19:56.097Z,99.90
2022-08-25T20:22:29.166Z,99.90
2022-08-25T20:24:59.567Z,99.90
2022-08-25T20:27:42.694Z,99.90
2022-08-25T20:30:17.833Z,99.90
2022-08-25T20:32:46.310Z,99.90
2022-08-25T20:35:14.547Z,99.90
2022-08-25T20:37:44.510Z,99.90
2022-08-25T20:40:16.414Z,99.90
2022-08-25T20:42:45.872Z,99.90
2022-08-25T20:45:17.132Z,99.90
2022-08-25T20:47:44.895Z,99.90
2022-08-25T20:50:13.162Z,99.90
2022-08-25T20:52:43.885Z,99.90
2022-08-25T20:55:12.543Z,99.90
2022-08-25T20:57:40.903Z,99.90
2022-08-25T21:00:10.069Z,99.90
2022-08-25T21:02:38.018Z,99.90
2022-08-25T21:05:06.177Z,99.90
2022-08-25T21:07:35.750Z,99.90
2022-08-25T21:10:10.406Z,99.90
2022-08-25T21:12:39.468Z,99.90
2022-08-25T21:15:08.258Z,99.90
2022-08-25T21:17:36.138Z,99.90
2022-08-25T21:20:06.175Z,99.90
2022-08-25T21:22:37.791Z,99.90
2022-08-25T21:25:06.598Z,99.90
2022-08-25T21:27:34.670Z,99.90
2022-08-25T21:30:02.482Z,99.90
2022-08-25T21:32:30.340Z,99.90
2022-08-25T21:34:58.394Z,99.90
2022-08-25T21:37:26.987Z,99.90
2022-08-25T21:39:55.127Z,99.90
2022-08-25T21:42:24.088Z,99.90
2022-08-25T21:47:21.687Z,99.90
2022-08-25T21:49:51.194Z,99.90
2022-08-25T21:52:19.431Z,99.90
2022-08-25T21:54:47.284Z,99.90
2022-08-25T21:57:18.014Z,99.90
2022-08-25T21:59:46.863Z,99.90
2022-08-25T22:02:19.250Z,99.90
2022-08-25T22:04:54.428Z,99.90
2022-08-25T22:07:24.617Z,99.90
2022-08-25T22:09:53.087Z,99.90
2022-08-25T22:14:53.042Z,99.90
2022-08-25T22:17:24.447Z,99.90
2022-08-25T22:19:53.795Z,99.90
2022-08-25T22:22:22.215Z,99.90
2022-08-25T22:24:50.443Z,99.90
2022-08-25T22:27:18.879Z,99.90
2022-08-25T22:29:52.074Z,99.90
2022-08-25T22:34:49.011Z,99.90
2022-08-25T22:37:18.067Z,99.90
2022-08-25T22:39:46.790Z,99.90
2022-08-25T22:42:15.116Z,99.90
2022-08-25T22:44:43.303Z,99.90
2022-08-25T22:47:12.367Z,99.90
2022-08-25T22:49:40.651Z,99.90
2022-08-25T22:52:09.401Z,99.90
2022-08-25T22:54:41.730Z,99.90
2022-08-25T22:59:38.545Z,99.90
2022-08-25T23:02:06.778Z,99.90
2022-08-25T23:04:34.386Z,99.90
2022-08-25T23:07:02.811Z,99.90
2022-08-25T23:09:31.521Z,99.90
2022-08-25T23:11:59.624Z,99.90
2022-08-25T23:14:27.336Z,99.90
2022-08-25T23:16:56.015Z,99.90
2022-08-25T23:19:24.383Z,99.90
2022-08-25T23:22:11.577Z,99.90
2022-08-25T23:24:44.175Z,99.90
2022-08-25T23:27:18.171Z,99.90
2022-08-25T23:29:48.764Z,99.90
2022-08-25T23:32:18.483Z,99.90
2022-08-25T23:34:47.241Z,99.90
2022-08-25T23:37:16.249Z,99.90
2022-08-25T23:39:50.047Z,99.90
2022-08-25T23:42:21.893Z,99.90
2022-08-25T23:44:50.425Z,99.90
2022-08-25T23:47:18.865Z,99.90
2022-08-25T23:49:48.348Z,99.90
2022-08-25T23:52:17.787Z,99.90
2022-08-25T23:54:46.648Z,99.90
2022-08-25T23:57:14.808Z,99.90
2022-08-25T23:59:43.244Z,99.90
